Thacker, West Virginia
Current Conditions -  °F | °C
As of 4:35 AM on Saturday 20 Dec 2014 (Local Time) from KPBX Reporting Station
Overcast Overcast  
Wind Chill: -3°   Ceiling: 8000
Heat Index: -3°   Visibility: 10mi
Dew Point: -5°   Wind: 3mph
Humidity: 88%   Direction: 20°NNE
Pressure: 30.18"   Gusts: NA
Location:  37.59°N, 82.13°W
Report Text: KPBX 200935Z AUTO 02003KT 10SM OVC080 M03/M05 A3018 RMK AO2 T10301048
Loading
Personal Weather Stations






























Interactive Weather Map New forecast layout! Learn more

10-Day Weather Forecast

Advertisements
Track Severe Weather on mobile